sensor_id;sensor_type;location;lat;lon;timestamp;pressure;altitude;pressure_sealevel;temperature;humidity
60267;BME280;46125;61.360;-149.532;2023-07-08T00:02:14;99737.10;;;12.53;69.33
60267;BME280;46125;61.360;-149.532;2023-07-08T00:04:43;99735.03;;;12.18;69.43
60267;BME280;46125;61.360;-149.532;2023-07-08T00:07:13;99733.21;;;12.33;69.66
60267;BME280;46125;61.360;-149.532;2023-07-08T00:09:44;99731.98;;;11.39;72.06
60267;BME280;46125;61.360;-149.532;2023-07-08T00:12:12;99735.29;;;11.91;70.26
60267;BME280;46125;61.360;-149.532;2023-07-08T00:14:41;99727.90;;;12.37;69.30
60267;BME280;46125;61.360;-149.532;2023-07-08T00:17:11;99724.00;;;11.91;70.24
60267;BME280;46125;61.360;-149.532;2023-07-08T00:19:41;99727.22;;;12.25;70.43
60267;BME280;46125;61.360;-149.532;2023-07-08T00:22:12;99727.90;;;11.11;71.35
60267;BME280;46125;61.360;-149.532;2023-07-08T00:24:42;99721.23;;;12.27;70.29
60267;BME280;46125;61.360;-149.532;2023-07-08T00:27:11;99718.27;;;11.95;69.73
60267;BME280;46125;61.360;-149.532;2023-07-08T00:29:40;99717.00;;;11.93;70.94
60267;BME280;46125;61.360;-149.532;2023-07-08T00:32:12;99719.67;;;12.40;69.72
60267;BME280;46125;61.360;-149.532;2023-07-08T00:34:41;99713.67;;;12.67;67.90
60267;BME280;46125;61.360;-149.532;2023-07-08T00:37:11;99714.15;;;12.29;69.59
60267;BME280;46125;61.360;-149.532;2023-07-08T00:39:40;99709.84;;;12.72;66.51
60267;BME280;46125;61.360;-149.532;2023-07-08T00:42:15;99711.65;;;12.45;68.44
60267;BME280;46125;61.360;-149.532;2023-07-08T00:44:44;99710.93;;;12.52;68.60
60267;BME280;46125;61.360;-149.532;2023-07-08T00:47:13;99702.84;;;12.21;68.66
60267;BME280;46125;61.360;-149.532;2023-07-08T00:49:52;99701.22;;;11.15;70.36
60267;BME280;46125;61.360;-149.532;2023-07-08T00:52:25;99703.35;;;13.15;66.82
60267;BME280;46125;61.360;-149.532;2023-07-08T00:54:55;99704.41;;;13.25;64.20
60267;BME280;46125;61.360;-149.532;2023-07-08T00:57:27;99699.45;;;13.30;65.91
60267;BME280;46125;61.360;-149.532;2023-07-08T00:59:59;99696.65;;;12.66;65.37
60267;BME280;46125;61.360;-149.532;2023-07-08T01:02:30;99691.28;;;12.94;65.60
60267;BME280;46125;61.360;-149.532;2023-07-08T01:05:04;99688.23;;;14.21;60.98
60267;BME280;46125;61.360;-149.532;2023-07-08T01:07:39;99694.76;;;13.77;60.37
60267;BME280;46125;61.360;-149.532;2023-07-08T01:10:12;99694.37;;;13.85;61.52
60267;BME280;46125;61.360;-149.532;2023-07-08T01:12:44;99697.02;;;13.50;62.02
60267;BME280;46125;61.360;-149.532;2023-07-08T01:15:14;99694.16;;;13.77;60.38
60267;BME280;46125;61.360;-149.532;2023-07-08T01:17:53;99699.82;;;13.42;62.30
60267;BME280;46125;61.360;-149.532;2023-07-08T01:20:23;99699.66;;;12.84;62.42
60267;BME280;46125;61.360;-149.532;2023-07-08T01:22:51;99701.66;;;12.71;63.14
60267;BME280;46125;61.360;-149.532;2023-07-08T01:25:20;99696.87;;;13.74;60.08
60267;BME280;46125;61.360;-149.532;2023-07-08T01:27:52;99694.07;;;14.24;60.44
60267;BME280;46125;61.360;-149.532;2023-07-08T01:30:22;99698.17;;;13.92;61.27
60267;BME280;46125;61.360;-149.532;2023-07-08T01:32:54;99699.20;;;13.81;61.11
60267;BME280;46125;61.360;-149.532;2023-07-08T01:35:24;99700.95;;;13.94;60.77
60267;BME280;46125;61.360;-149.532;2023-07-08T01:37:54;99702.39;;;13.76;59.86
60267;BME280;46125;61.360;-149.532;2023-07-08T01:40:28;99700.24;;;13.85;60.29
60267;BME280;46125;61.360;-149.532;2023-07-08T01:42:58;99692.59;;;13.45;60.02
60267;BME280;46125;61.360;-149.532;2023-07-08T01:45:30;99683.94;;;13.77;60.42
60267;BME280;46125;61.360;-149.532;2023-07-08T01:48:02;99686.30;;;13.86;60.75
60267;BME280;46125;61.360;-149.532;2023-07-08T01:50:34;99688.96;;;13.61;61.27
60267;BME280;46125;61.360;-149.532;2023-07-08T01:53:07;99685.00;;;13.88;58.72
60267;BME280;46125;61.360;-149.532;2023-07-08T01:55:37;99685.86;;;13.95;58.53
60267;BME280;46125;61.360;-149.532;2023-07-08T01:58:05;99686.75;;;13.97;58.74
60267;BME280;46125;61.360;-149.532;2023-07-08T02:00:33;99686.80;;;14.37;57.50
60267;BME280;46125;61.360;-149.532;2023-07-08T02:03:02;99684.00;;;14.34;57.28
60267;BME280;46125;61.360;-149.532;2023-07-08T02:05:31;99687.11;;;13.64;59.31
60267;BME280;46125;61.360;-149.532;2023-07-08T02:07:59;99693.00;;;12.71;61.31
60267;BME280;46125;61.360;-149.532;2023-07-08T02:10:27;99693.03;;;13.01;61.55
60267;BME280;46125;61.360;-149.532;2023-07-08T02:12:56;99692.47;;;12.49;64.89
60267;BME280;46125;61.360;-149.532;2023-07-08T02:15:26;99686.92;;;13.77;59.99
60267;BME280;46125;61.360;-149.532;2023-07-08T02:17:55;99689.43;;;13.93;58.74
60267;BME280;46125;61.360;-149.532;2023-07-08T02:20:23;99688.14;;;14.51;56.22
60267;BME280;46125;61.360;-149.532;2023-07-08T02:22:51;99690.31;;;13.04;60.19
60267;BME280;46125;61.360;-149.532;2023-07-08T02:25:20;99689.56;;;13.51;59.72
60267;BME280;46125;61.360;-149.532;2023-07-08T02:27:48;99691.36;;;13.90;58.36
60267;BME280;46125;61.360;-149.532;2023-07-08T02:30:17;99699.89;;;13.04;61.56
60267;BME280;46125;61.360;-149.532;2023-07-08T02:32:45;99704.27;;;12.66;62.47
60267;BME280;46125;61.360;-149.532;2023-07-08T02:35:14;99701.54;;;13.63;60.78
60267;BME280;46125;61.360;-149.532;2023-07-08T02:37:42;99702.61;;;12.49;63.14
60267;BME280;46125;61.360;-149.532;2023-07-08T02:40:12;99699.77;;;13.52;60.16
60267;BME280;46125;61.360;-149.532;2023-07-08T02:42:40;99704.46;;;13.06;61.78
60267;BME280;46125;61.360;-149.532;2023-07-08T02:45:11;99707.03;;;12.98;62.74
60267;BME280;46125;61.360;-149.532;2023-07-08T02:47:40;99704.53;;;13.03;62.51
60267;BME280;46125;61.360;-149.532;2023-07-08T02:50:09;99704.33;;;13.37;62.48
60267;BME280;46125;61.360;-149.532;2023-07-08T02:52:38;99705.10;;;13.40;61.87
60267;BME280;46125;61.360;-149.532;2023-07-08T02:55:07;99709.23;;;12.95;62.68
60267;BME280;46125;61.360;-149.532;2023-07-08T02:57:35;99708.90;;;12.26;63.95
60267;BME280;46125;61.360;-149.532;2023-07-08T03:00:05;99710.76;;;12.76;62.80
60267;BME280;46125;61.360;-149.532;2023-07-08T03:02:33;99709.89;;;12.70;63.45
60267;BME280;46125;61.360;-149.532;2023-07-08T03:05:08;99710.42;;;12.73;63.11
60267;BME280;46125;61.360;-149.532;2023-07-08T03:07:37;99707.00;;;11.79;65.91
60267;BME280;46125;61.360;-149.532;2023-07-08T03:10:05;99708.58;;;12.67;63.34
60267;BME280;46125;61.360;-149.532;2023-07-08T03:12:33;99709.11;;;12.58;63.30
60267;BME280;46125;61.360;-149.532;2023-07-08T03:15:02;99707.92;;;12.50;63.58
60267;BME280;46125;61.360;-149.532;2023-07-08T03:17:30;99709.41;;;13.40;61.33
60267;BME280;46125;61.360;-149.532;2023-07-08T03:19:59;99712.63;;;12.99;62.19
60267;BME280;46125;61.360;-149.532;2023-07-08T03:22:27;99712.47;;;12.87;62.43
60267;BME280;46125;61.360;-149.532;2023-07-08T03:24:55;99706.55;;;12.95;62.47
60267;BME280;46125;61.360;-149.532;2023-07-08T03:27:24;99704.85;;;12.67;63.44
60267;BME280;46125;61.360;-149.532;2023-07-08T03:29:52;99705.11;;;13.37;60.52
60267;BME280;46125;61.360;-149.532;2023-07-08T03:32:21;99703.90;;;13.52;59.54
60267;BME280;46125;61.360;-149.532;2023-07-08T03:34:50;99706.32;;;13.12;61.78
60267;BME280;46125;61.360;-149.532;2023-07-08T03:37:18;99709.36;;;12.97;62.97
60267;BME280;46125;61.360;-149.532;2023-07-08T03:39:46;99709.23;;;12.61;64.38
60267;BME280;46125;61.360;-149.532;2023-07-08T03:42:15;99712.49;;;12.95;62.98
60267;BME280;46125;61.360;-149.532;2023-07-08T03:44:43;99709.67;;;12.48;62.51
60267;BME280;46125;61.360;-149.532;2023-07-08T03:47:12;99712.30;;;13.16;61.05
60267;BME280;46125;61.360;-149.532;2023-07-08T03:49:40;99712.27;;;13.73;59.22
60267;BME280;46125;61.360;-149.532;2023-07-08T03:52:14;99718.63;;;13.19;60.75
60267;BME280;46125;61.360;-149.532;2023-07-08T03:54:45;99720.57;;;13.08;59.92
60267;BME280;46125;61.360;-149.532;2023-07-08T03:57:14;99716.26;;;13.82;59.71
60267;BME280;46125;61.360;-149.532;2023-07-08T03:59:42;99710.87;;;13.63;59.83
60267;BME280;46125;61.360;-149.532;2023-07-08T04:02:16;99715.52;;;13.67;59.19
60267;BME280;46125;61.360;-149.532;2023-07-08T04:04:45;99715.12;;;13.96;58.03
60267;BME280;46125;61.360;-149.532;2023-07-08T04:07:13;99718.50;;;12.12;63.87
60267;BME280;46125;61.360;-149.532;2023-07-08T04:09:42;99715.39;;;12.63;63.69
60267;BME280;46125;61.360;-149.532;2023-07-08T04:12:11;99716.33;;;13.20;61.67
60267;BME280;46125;61.360;-149.532;2023-07-08T04:14:39;99714.76;;;12.98;61.55
60267;BME280;46125;61.360;-149.532;2023-07-08T04:17:08;99714.91;;;11.79;65.26
60267;BME280;46125;61.360;-149.532;2023-07-08T04:19:36;99710.69;;;12.79;61.68
60267;BME280;46125;61.360;-149.532;2023-07-08T04:22:05;99711.83;;;12.96;60.24
60267;BME280;46125;61.360;-149.532;2023-07-08T04:24:39;99710.59;;;13.29;58.60
60267;BME280;46125;61.360;-149.532;2023-07-08T04:27:10;99714.25;;;12.42;61.06
60267;BME280;46125;61.360;-149.532;2023-07-08T04:29:40;99708.84;;;13.20;59.32
60267;BME280;46125;61.360;-149.532;2023-07-08T04:32:09;99709.34;;;13.72;58.49
60267;BME280;46125;61.360;-149.532;2023-07-08T04:34:37;99708.26;;;13.98;57.29
60267;BME280;46125;61.360;-149.532;2023-07-08T04:37:07;99706.58;;;13.24;58.41
60267;BME280;46125;61.360;-149.532;2023-07-08T04:39:36;99704.30;;;13.96;57.70
60267;BME280;46125;61.360;-149.532;2023-07-08T04:42:05;99710.70;;;13.72;58.07
60267;BME280;46125;61.360;-149.532;2023-07-08T04:44:33;99712.05;;;13.94;57.44
60267;BME280;46125;61.360;-149.532;2023-07-08T04:47:01;99713.64;;;14.05;57.41
60267;BME280;46125;61.360;-149.532;2023-07-08T04:49:30;99712.92;;;14.07;58.16
60267;BME280;46125;61.360;-149.532;2023-07-08T04:51:59;99708.49;;;14.08;57.45
60267;BME280;46125;61.360;-149.532;2023-07-08T04:54:27;99712.00;;;13.22;60.01
60267;BME280;46125;61.360;-149.532;2023-07-08T04:56:55;99713.79;;;12.61;63.29
60267;BME280;46125;61.360;-149.532;2023-07-08T04:59:25;99711.74;;;12.75;63.64
60267;BME280;46125;61.360;-149.532;2023-07-08T05:01:54;99708.19;;;12.24;64.59
60267;BME280;46125;61.360;-149.532;2023-07-08T05:04:23;99712.15;;;11.41;67.16
60267;BME280;46125;61.360;-149.532;2023-07-08T05:06:56;99706.97;;;11.87;65.24
60267;BME280;46125;61.360;-149.532;2023-07-08T05:09:30;99709.45;;;10.86;68.69
60267;BME280;46125;61.360;-149.532;2023-07-08T05:11:59;99713.58;;;9.92;71.02
60267;BME280;46125;61.360;-149.532;2023-07-08T05:14:28;99717.04;;;11.14;68.38
60267;BME280;46125;61.360;-149.532;2023-07-08T05:16:57;99718.63;;;11.51;66.33
60267;BME280;46125;61.360;-149.532;2023-07-08T05:19:27;99715.98;;;11.29;67.39
60267;BME280;46125;61.360;-149.532;2023-07-08T05:21:55;99717.83;;;10.40;66.60
60267;BME280;46125;61.360;-149.532;2023-07-08T05:24:23;99715.36;;;10.70;67.50
60267;BME280;46125;61.360;-149.532;2023-07-08T05:26:52;99716.01;;;11.79;63.97
60267;BME280;46125;61.360;-149.532;2023-07-08T05:29:20;99718.68;;;11.72;65.18
60267;BME280;46125;61.360;-149.532;2023-07-08T05:31:49;99718.06;;;11.79;64.44
60267;BME280;46125;61.360;-149.532;2023-07-08T05:34:17;99720.98;;;12.15;62.57
60267;BME280;46125;61.360;-149.532;2023-07-08T05:36:46;99725.37;;;12.25;62.10
60267;BME280;46125;61.360;-149.532;2023-07-08T05:39:14;99724.78;;;11.27;63.82
60267;BME280;46125;61.360;-149.532;2023-07-08T05:41:43;99724.19;;;11.11;66.65
60267;BME280;46125;61.360;-149.532;2023-07-08T05:44:11;99722.67;;;10.80;67.37
60267;BME280;46125;61.360;-149.532;2023-07-08T05:46:40;99725.43;;;10.09;69.42
60267;BME280;46125;61.360;-149.532;2023-07-08T05:49:13;99731.06;;;10.08;70.12
60267;BME280;46125;61.360;-149.532;2023-07-08T05:51:47;99728.94;;;9.90;71.77
60267;BME280;46125;61.360;-149.532;2023-07-08T05:54:15;99731.22;;;10.67;68.17
60267;BME280;46125;61.360;-149.532;2023-07-08T05:56:44;99734.50;;;10.60;68.67
60267;BME280;46125;61.360;-149.532;2023-07-08T05:59:12;99735.41;;;9.71;70.96
60267;BME280;46125;61.360;-149.532;2023-07-08T06:01:41;99732.96;;;10.59;68.29
60267;BME280;46125;61.360;-149.532;2023-07-08T06:04:09;99738.56;;;10.12;70.67
60267;BME280;46125;61.360;-149.532;2023-07-08T06:06:38;99734.63;;;10.13;70.07
60267;BME280;46125;61.360;-149.532;2023-07-08T06:09:06;99733.39;;;10.23;70.28
60267;BME280;46125;61.360;-149.532;2023-07-08T06:11:35;99736.31;;;9.78;71.35
60267;BME280;46125;61.360;-149.532;2023-07-08T06:14:09;99737.48;;;9.69;72.49
60267;BME280;46125;61.360;-149.532;2023-07-08T06:16:37;99737.04;;;9.92;71.81
60267;BME280;46125;61.360;-149.532;2023-07-08T06:19:06;99737.69;;;10.15;71.20
60267;BME280;46125;61.360;-149.532;2023-07-08T06:21:34;99736.93;;;10.42;71.16
60267;BME280;46125;61.360;-149.532;2023-07-08T06:24:08;99738.09;;;10.01;71.39
60267;BME280;46125;61.360;-149.532;2023-07-08T06:26:36;99735.59;;;10.11;71.40
60267;BME280;46125;61.360;-149.532;2023-07-08T06:29:09;99740.22;;;9.87;71.50
60267;BME280;46125;61.360;-149.532;2023-07-08T06:31:38;99745.31;;;10.36;69.69
60267;BME280;46125;61.360;-149.532;2023-07-08T06:34:07;99743.56;;;10.07;70.19
60267;BME280;46125;61.360;-149.532;2023-07-08T06:36:35;99744.80;;;9.85;73.12
60267;BME280;46125;61.360;-149.532;2023-07-08T06:39:04;99747.49;;;9.53;72.42
60267;BME280;46125;61.360;-149.532;2023-07-08T06:41:32;99748.26;;;10.08;72.72
60267;BME280;46125;61.360;-149.532;2023-07-08T06:44:01;99746.73;;;9.98;72.62
60267;BME280;46125;61.360;-149.532;2023-07-08T06:46:29;99747.46;;;9.76;73.09
60267;BME280;46125;61.360;-149.532;2023-07-08T06:48:58;99747.34;;;9.66;72.67
60267;BME280;46125;61.360;-149.532;2023-07-08T06:51:27;99751.80;;;9.19;75.07
60267;BME280;46125;61.360;-149.532;2023-07-08T06:53:55;99746.67;;;9.76;74.35
60267;BME280;46125;61.360;-149.532;2023-07-08T06:56:24;99745.57;;;9.72;72.99
60267;BME280;46125;61.360;-149.532;2023-07-08T06:58:52;99745.67;;;9.89;73.80
60267;BME280;46125;61.360;-149.532;2023-07-08T07:01:21;99748.51;;;9.81;72.31
60267;BME280;46125;61.360;-149.532;2023-07-08T07:03:50;99750.76;;;8.99;75.18
60267;BME280;46125;61.360;-149.532;2023-07-08T07:06:19;99751.33;;;10.54;70.49
60267;BME280;46125;61.360;-149.532;2023-07-08T07:08:48;99755.20;;;9.52;73.66
60267;BME280;46125;61.360;-149.532;2023-07-08T07:11:17;99759.31;;;9.45;75.00
60267;BME280;46125;61.360;-149.532;2023-07-08T07:13:45;99759.16;;;9.71;73.53
60267;BME280;46125;61.360;-149.532;2023-07-08T07:16:14;99761.78;;;8.86;76.47
60267;BME280;46125;61.360;-149.532;2023-07-08T07:18:43;99763.44;;;9.29;75.04
60267;BME280;46125;61.360;-149.532;2023-07-08T07:21:12;99767.69;;;9.39;75.76
60267;BME280;46125;61.360;-149.532;2023-07-08T07:23:40;99765.66;;;9.31;76.63
60267;BME280;46125;61.360;-149.532;2023-07-08T07:26:08;99761.84;;;8.33;80.28
60267;BME280;46125;61.360;-149.532;2023-07-08T07:28:37;99762.95;;;8.41;80.59
60267;BME280;46125;61.360;-149.532;2023-07-08T07:31:06;99764.71;;;8.50;80.21
60267;BME280;46125;61.360;-149.532;2023-07-08T07:33:34;99766.01;;;8.68;79.42
60267;BME280;46125;61.360;-149.532;2023-07-08T07:36:03;99767.57;;;8.94;78.09
60267;BME280;46125;61.360;-149.532;2023-07-08T07:38:33;99770.01;;;8.55;80.06
60267;BME280;46125;61.360;-149.532;2023-07-08T07:41:07;99770.00;;;8.97;78.03
60267;BME280;46125;61.360;-149.532;2023-07-08T07:43:36;99774.50;;;8.73;77.82
60267;BME280;46125;61.360;-149.532;2023-07-08T07:46:05;99775.47;;;8.85;77.71
60267;BME280;46125;61.360;-149.532;2023-07-08T07:48:33;99778.71;;;8.77;78.86
60267;BME280;46125;61.360;-149.532;2023-07-08T07:51:01;99781.21;;;8.58;79.17
60267;BME280;46125;61.360;-149.532;2023-07-08T07:53:30;99784.77;;;9.30;75.92
60267;BME280;46125;61.360;-149.532;2023-07-08T07:55:59;99783.91;;;9.56;75.17
60267;BME280;46125;61.360;-149.532;2023-07-08T07:58:28;99782.18;;;9.53;74.19
60267;BME280;46125;61.360;-149.532;2023-07-08T08:00:56;99788.42;;;8.93;75.77
60267;BME280;46125;61.360;-149.532;2023-07-08T08:03:25;99789.46;;;9.98;72.08
60267;BME280;46125;61.360;-149.532;2023-07-08T08:05:53;99792.22;;;9.95;72.16
60267;BME280;46125;61.360;-149.532;2023-07-08T08:08:22;99787.92;;;10.56;69.62
60267;BME280;46125;61.360;-149.532;2023-07-08T08:10:50;99789.28;;;10.11;70.61
60267;BME280;46125;61.360;-149.532;2023-07-08T08:13:18;99788.43;;;10.97;68.04
60267;BME280;46125;61.360;-149.532;2023-07-08T08:15:47;99792.41;;;10.57;68.67
60267;BME280;46125;61.360;-149.532;2023-07-08T08:18:21;99795.50;;;11.13;67.15
60267;BME280;46125;61.360;-149.532;2023-07-08T08:20:51;99794.42;;;11.39;66.23
60267;BME280;46125;61.360;-149.532;2023-07-08T08:23:19;99788.66;;;11.54;66.30
60267;BME280;46125;61.360;-149.532;2023-07-08T08:25:48;99787.49;;;10.58;68.73
60267;BME280;46125;61.360;-149.532;2023-07-08T08:28:17;99786.15;;;10.64;69.43
60267;BME280;46125;61.360;-149.532;2023-07-08T08:30:48;99785.00;;;10.29;70.99
60267;BME280;46125;61.360;-149.532;2023-07-08T08:33:19;99785.70;;;10.33;71.05
60267;BME280;46125;61.360;-149.532;2023-07-08T08:35:47;99784.43;;;10.35;70.74
60267;BME280;46125;61.360;-149.532;2023-07-08T08:38:15;99784.89;;;9.99;72.65
60267;BME280;46125;61.360;-149.532;2023-07-08T08:40:44;99789.83;;;9.85;73.18
60267;BME280;46125;61.360;-149.532;2023-07-08T08:43:17;99787.39;;;8.93;73.84
60267;BME280;46125;61.360;-149.532;2023-07-08T08:45:50;99787.12;;;9.70;72.56
60267;BME280;46125;61.360;-149.532;2023-07-08T08:48:22;99787.24;;;10.02;72.79
60267;BME280;46125;61.360;-149.532;2023-07-08T08:50:53;99792.00;;;9.65;73.96
60267;BME280;46125;61.360;-149.532;2023-07-08T08:53:24;99788.19;;;10.05;71.57
60267;BME280;46125;61.360;-149.532;2023-07-08T08:55:57;99787.76;;;9.50;73.29
60267;BME280;46125;61.360;-149.532;2023-07-08T08:58:43;99793.24;;;9.30;73.14
60267;BME280;46125;61.360;-149.532;2023-07-08T09:01:13;99795.80;;;9.51;72.43
60267;BME280;46125;61.360;-149.532;2023-07-08T09:03:47;99799.69;;;9.93;71.66
60267;BME280;46125;61.360;-149.532;2023-07-08T09:06:18;99805.17;;;9.97;71.02
60267;BME280;46125;61.360;-149.532;2023-07-08T09:08:48;99801.27;;;10.39;69.55
60267;BME280;46125;61.360;-149.532;2023-07-08T09:11:30;99805.58;;;10.43;68.72
60267;BME280;46125;61.360;-149.532;2023-07-08T09:14:02;99811.02;;;11.12;66.27
60267;BME280;46125;61.360;-149.532;2023-07-08T09:16:40;99812.66;;;11.42;64.80
60267;BME280;46125;61.360;-149.532;2023-07-08T09:19:15;99818.88;;;11.47;65.04
60267;BME280;46125;61.360;-149.532;2023-07-08T09:21:50;99818.45;;;11.65;62.76
60267;BME280;46125;61.360;-149.532;2023-07-08T09:24:29;99819.70;;;11.13;64.57
60267;BME280;46125;61.360;-149.532;2023-07-08T09:27:01;99818.74;;;10.26;67.50
60267;BME280;46125;61.360;-149.532;2023-07-08T09:29:30;99815.88;;;11.17;66.04
60267;BME280;46125;61.360;-149.532;2023-07-08T09:31:59;99820.16;;;11.18;65.98
60267;BME280;46125;61.360;-149.532;2023-07-08T09:34:40;99816.93;;;11.84;64.11
60267;BME280;46125;61.360;-149.532;2023-07-08T09:37:22;99819.49;;;12.14;62.88
60267;BME280;46125;61.360;-149.532;2023-07-08T09:39:53;99818.54;;;10.87;63.80
60267;BME280;46125;61.360;-149.532;2023-07-08T09:42:24;99820.64;;;10.10;67.70
60267;BME280;46125;61.360;-149.532;2023-07-08T09:44:57;99825.36;;;10.78;66.56
60267;BME280;46125;61.360;-149.532;2023-07-08T09:47:28;99829.74;;;11.39;65.02
60267;BME280;46125;61.360;-149.532;2023-07-08T09:49:59;99831.43;;;11.83;63.96
60267;BME280;46125;61.360;-149.532;2023-07-08T09:52:29;99823.50;;;12.08;62.93
60267;BME280;46125;61.360;-149.532;2023-07-08T09:54:58;99822.46;;;11.31;64.85
60267;BME280;46125;61.360;-149.532;2023-07-08T09:57:28;99827.59;;;11.18;65.25
60267;BME280;46125;61.360;-149.532;2023-07-08T10:00:00;99828.52;;;12.00;63.80
60267;BME280;46125;61.360;-149.532;2023-07-08T10:02:33;99827.67;;;11.04;65.52
60267;BME280;46125;61.360;-149.532;2023-07-08T10:05:14;99829.88;;;10.55;67.89
60267;BME280;46125;61.360;-149.532;2023-07-08T10:07:46;99828.19;;;11.77;64.30
60267;BME280;46125;61.360;-149.532;2023-07-08T10:10:18;99826.69;;;10.95;65.08
60267;BME280;46125;61.360;-149.532;2023-07-08T10:13:05;99828.15;;;10.93;65.98
60267;BME280;46125;61.360;-149.532;2023-07-08T10:15:40;99831.17;;;10.73;66.48
60267;BME280;46125;61.360;-149.532;2023-07-08T10:18:14;99831.02;;;10.65;66.58
60267;BME280;46125;61.360;-149.532;2023-07-08T10:20:52;99830.27;;;11.29;66.61
60267;BME280;46125;61.360;-149.532;2023-07-08T10:23:30;99836.01;;;10.35;67.51
60267;BME280;46125;61.360;-149.532;2023-07-08T10:26:10;99837.37;;;11.33;64.91
60267;BME280;46125;61.360;-149.532;2023-07-08T10:28:48;99834.42;;;11.02;66.50
60267;BME280;46125;61.360;-149.532;2023-07-08T10:31:27;99834.97;;;11.14;67.05
60267;BME280;46125;61.360;-149.532;2023-07-08T10:34:41;99838.61;;;9.90;68.57
60267;BME280;46125;61.360;-149.532;2023-07-08T10:37:18;99844.41;;;9.43;71.28
60267;BME280;46125;61.360;-149.532;2023-07-08T10:39:57;99849.06;;;10.29;70.35
60267;BME280;46125;61.360;-149.532;2023-07-08T10:42:42;99851.63;;;9.89;71.65
60267;BME280;46125;61.360;-149.532;2023-07-08T10:45:17;99847.59;;;10.87;68.19
60267;BME280;46125;61.360;-149.532;2023-07-08T10:48:00;99847.95;;;10.45;68.15
60267;BME280;46125;61.360;-149.532;2023-07-08T10:50:44;99851.31;;;9.61;70.01
60267;BME280;46125;61.360;-149.532;2023-07-08T10:53:28;99855.00;;;10.95;66.57
60267;BME280;46125;61.360;-149.532;2023-07-08T10:56:01;99850.81;;;11.20;66.55
60267;BME280;46125;61.360;-149.532;2023-07-08T10:59:50;99854.35;;;10.46;67.62
60267;BME280;46125;61.360;-149.532;2023-07-08T11:02:39;99858.12;;;11.54;64.64
60267;BME280;46125;61.360;-149.532;2023-07-08T11:05:25;99863.81;;;10.24;70.42
60267;BME280;46125;61.360;-149.532;2023-07-08T11:07:59;99862.00;;;10.57;68.22
60267;BME280;46125;61.360;-149.532;2023-07-08T11:10:34;99865.94;;;10.87;66.03
60267;BME280;46125;61.360;-149.532;2023-07-08T11:13:09;99875.19;;;10.29;69.58
60267;BME280;46125;61.360;-149.532;2023-07-08T11:15:45;99874.07;;;11.03;67.62
60267;BME280;46125;61.360;-149.532;2023-07-08T11:18:19;99875.94;;;11.52;65.71
60267;BME280;46125;61.360;-149.532;2023-07-08T11:20:56;99874.26;;;11.68;65.31
60267;BME280;46125;61.360;-149.532;2023-07-08T11:23:33;99873.28;;;11.57;65.61
60267;BME280;46125;61.360;-149.532;2023-07-08T11:26:16;99872.44;;;12.00;63.66
60267;BME280;46125;61.360;-149.532;2023-07-08T11:28:46;99871.53;;;12.11;62.59
60267;BME280;46125;61.360;-149.532;2023-07-08T11:31:16;99873.53;;;12.27;62.33
60267;BME280;46125;61.360;-149.532;2023-07-08T11:33:46;99875.35;;;12.53;61.89
60267;BME280;46125;61.360;-149.532;2023-07-08T11:36:15;99872.23;;;12.69;60.60
60267;BME280;46125;61.360;-149.532;2023-07-08T11:38:49;99871.92;;;11.49;63.71
60267;BME280;46125;61.360;-149.532;2023-07-08T11:41:20;99871.31;;;10.97;64.75
60267;BME280;46125;61.360;-149.532;2023-07-08T11:43:52;99868.83;;;12.11;62.74
60267;BME280;46125;61.360;-149.532;2023-07-08T11:46:23;99870.76;;;11.84;62.98
60267;BME280;46125;61.360;-149.532;2023-07-08T11:48:53;99870.45;;;12.24;61.85
60267;BME280;46125;61.360;-149.532;2023-07-08T11:51:26;99870.30;;;12.00;62.43
60267;BME280;46125;61.360;-149.532;2023-07-08T11:54:01;99874.52;;;11.81;62.48
60267;BME280;46125;61.360;-149.532;2023-07-08T11:56:50;99874.98;;;12.58;60.68
60267;BME280;46125;61.360;-149.532;2023-07-08T11:59:19;99874.82;;;12.62;59.91
60267;BME280;46125;61.360;-149.532;2023-07-08T12:01:52;99878.23;;;12.44;60.17
60267;BME280;46125;61.360;-149.532;2023-07-08T12:04:27;99876.14;;;11.55;61.93
60267;BME280;46125;61.360;-149.532;2023-07-08T12:07:09;99880.13;;;12.61;59.99
60267;BME280;46125;61.360;-149.532;2023-07-08T12:09:44;99879.42;;;12.92;58.54
60267;BME280;46125;61.360;-149.532;2023-07-08T12:12:21;99879.48;;;12.55;59.00
60267;BME280;46125;61.360;-149.532;2023-07-08T12:14:52;99879.86;;;12.27;59.97
60267;BME280;46125;61.360;-149.532;2023-07-08T12:17:21;99881.33;;;11.48;61.76
60267;BME280;46125;61.360;-149.532;2023-07-08T12:19:51;99882.81;;;11.91;61.18
60267;BME280;46125;61.360;-149.532;2023-07-08T12:22:21;99883.93;;;12.03;62.00
60267;BME280;46125;61.360;-149.532;2023-07-08T12:24:49;99887.12;;;11.46;62.30
60267;BME280;46125;61.360;-149.532;2023-07-08T12:27:18;99888.00;;;12.03;61.05
60267;BME280;46125;61.360;-149.532;2023-07-08T12:29:46;99892.29;;;11.58;63.09
60267;BME280;46125;61.360;-149.532;2023-07-08T12:32:15;99891.04;;;12.16;62.41
60267;BME280;46125;61.360;-149.532;2023-07-08T12:34:43;99890.87;;;11.50;64.20
60267;BME280;46125;61.360;-149.532;2023-07-08T12:37:13;99893.62;;;12.49;61.31
60267;BME280;46125;61.360;-149.532;2023-07-08T12:39:41;99896.99;;;12.04;62.29
60267;BME280;46125;61.360;-149.532;2023-07-08T12:42:11;99897.05;;;11.60;62.50
60267;BME280;46125;61.360;-149.532;2023-07-08T12:44:40;99898.30;;;12.58;60.82
60267;BME280;46125;61.360;-149.532;2023-07-08T12:47:08;99896.96;;;11.94;61.48
60267;BME280;46125;61.360;-149.532;2023-07-08T12:49:37;99897.96;;;11.69;61.87
60267;BME280;46125;61.360;-149.532;2023-07-08T12:52:05;99900.85;;;11.78;61.88
60267;BME280;46125;61.360;-149.532;2023-07-08T12:54:33;99900.02;;;11.22;63.46